sensor_id;sensor_type;location;lat;lon;timestamp;P1;durP1;ratioP1;P2;durP2;ratioP2
15958;SDS011;8078;47.822;9.402;2023-05-10T00:01:20;582.90;;;25.23;;
15958;SDS011;8078;47.822;9.402;2023-05-10T00:03:46;498.30;;;24.70;;
15958;SDS011;8078;47.822;9.402;2023-05-10T00:06:12;292.87;;;15.37;;
15958;SDS011;8078;47.822;9.402;2023-05-10T00:08:37;308.40;;;15.27;;
15958;SDS011;8078;47.822;9.402;2023-05-10T00:11:03;423.47;;;21.33;;
15958;SDS011;8078;47.822;9.402;2023-05-10T00:13:28;413.17;;;18.33;;
15958;SDS011;8078;47.822;9.402;2023-05-10T00:15:54;393.93;;;19.33;;
15958;SDS011;8078;47.822;9.402;2023-05-10T00:18:20;295.87;;;18.70;;
15958;SDS011;8078;47.822;9.402;2023-05-10T00:20:45;236.13;;;16.20;;
15958;SDS011;8078;47.822;9.402;2023-05-10T00:23:11;497.83;;;24.33;;
15958;SDS011;8078;47.822;9.402;2023-05-10T00:25:37;284.50;;;14.30;;
15958;SDS011;8078;47.822;9.402;2023-05-10T00:28:03;326.07;;;16.07;;
15958;SDS011;8078;47.822;9.402;2023-05-10T00:30:28;453.73;;;22.67;;
15958;SDS011;8078;47.822;9.402;2023-05-10T00:32:54;185.57;;;14.03;;
15958;SDS011;8078;47.822;9.402;2023-05-10T00:35:19;391.03;;;22.77;;
15958;SDS011;8078;47.822;9.402;2023-05-10T00:37:46;185.77;;;12.67;;
15958;SDS011;8078;47.822;9.402;2023-05-10T00:40:12;578.60;;;33.83;;
15958;SDS011;8078;47.822;9.402;2023-05-10T00:42:37;377.57;;;24.53;;
15958;SDS011;8078;47.822;9.402;2023-05-10T00:45:03;442.37;;;27.83;;
15958;SDS011;8078;47.822;9.402;2023-05-10T00:47:29;222.23;;;15.90;;
15958;SDS011;8078;47.822;9.402;2023-05-10T00:49:55;529.70;;;30.07;;
15958;SDS011;8078;47.822;9.402;2023-05-10T00:52:21;507.70;;;30.27;;
15958;SDS011;8078;47.822;9.402;2023-05-10T00:54:48;390.10;;;25.43;;
15958;SDS011;8078;47.822;9.402;2023-05-10T00:57:16;698.40;;;43.97;;
15958;SDS011;8078;47.822;9.402;2023-05-10T00:59:41;476.67;;;23.47;;
15958;SDS011;8078;47.822;9.402;2023-05-10T01:02:07;485.67;;;31.10;;
15958;SDS011;8078;47.822;9.402;2023-05-10T01:04:32;550.47;;;31.77;;
15958;SDS011;8078;47.822;9.402;2023-05-10T01:06:59;608.47;;;37.17;;
15958;SDS011;8078;47.822;9.402;2023-05-10T01:09:25;392.30;;;26.00;;
15958;SDS011;8078;47.822;9.402;2023-05-10T01:11:51;630.57;;;34.67;;
15958;SDS011;8078;47.822;9.402;2023-05-10T01:14:18;690.67;;;36.63;;
15958;SDS011;8078;47.822;9.402;2023-05-10T01:16:44;447.17;;;25.40;;
15958;SDS011;8078;47.822;9.402;2023-05-10T01:19:27;618.73;;;37.13;;
15958;SDS011;8078;47.822;9.402;2023-05-10T01:24:52;142.70;;;10.20;;
15958;SDS011;8078;47.822;9.402;2023-05-10T01:30:35;565.30;;;28.33;;
15958;SDS011;8078;47.822;9.402;2023-05-10T01:33:21;602.30;;;32.73;;
15958;SDS011;8078;47.822;9.402;2023-05-10T01:36:05;502.47;;;24.30;;
15958;SDS011;8078;47.822;9.402;2023-05-10T01:39:02;277.90;;;15.97;;
15958;SDS011;8078;47.822;9.402;2023-05-10T01:41:51;458.27;;;24.77;;
15958;SDS011;8078;47.822;9.402;2023-05-10T01:44:31;566.80;;;31.20;;
15958;SDS011;8078;47.822;9.402;2023-05-10T01:47:07;683.47;;;36.10;;
15958;SDS011;8078;47.822;9.402;2023-05-10T01:49:40;512.43;;;28.47;;
15958;SDS011;8078;47.822;9.402;2023-05-10T01:52:10;523.83;;;28.10;;
15958;SDS011;8078;47.822;9.402;2023-05-10T01:54:39;682.10;;;39.77;;
15958;SDS011;8078;47.822;9.402;2023-05-10T01:57:09;616.83;;;32.17;;
15958;SDS011;8078;47.822;9.402;2023-05-10T01:59:39;647.87;;;35.80;;
15958;SDS011;8078;47.822;9.402;2023-05-10T02:02:07;454.17;;;26.60;;
15958;SDS011;8078;47.822;9.402;2023-05-10T02:04:37;310.83;;;17.77;;
15958;SDS011;8078;47.822;9.402;2023-05-10T02:07:04;592.13;;;37.97;;
15958;SDS011;8078;47.822;9.402;2023-05-10T02:09:32;514.73;;;30.03;;
15958;SDS011;8078;47.822;9.402;2023-05-10T02:11:59;578.53;;;30.33;;
15958;SDS011;8078;47.822;9.402;2023-05-10T02:14:27;497.53;;;26.73;;
15958;SDS011;8078;47.822;9.402;2023-05-10T02:16:55;651.10;;;34.70;;
15958;SDS011;8078;47.822;9.402;2023-05-10T02:19:23;646.13;;;34.00;;
15958;SDS011;8078;47.822;9.402;2023-05-10T02:21:50;679.87;;;40.93;;
15958;SDS011;8078;47.822;9.402;2023-05-10T02:24:16;433.53;;;22.30;;
15958;SDS011;8078;47.822;9.402;2023-05-10T02:26:43;577.90;;;30.53;;
15958;SDS011;8078;47.822;9.402;2023-05-10T02:29:10;695.83;;;31.50;;
15958;SDS011;8078;47.822;9.402;2023-05-10T02:31:37;605.37;;;29.97;;
15958;SDS011;8078;47.822;9.402;2023-05-10T02:34:03;401.77;;;20.27;;
15958;SDS011;8078;47.822;9.402;2023-05-10T02:36:30;571.27;;;27.90;;
15958;SDS011;8078;47.822;9.402;2023-05-10T02:38:57;665.30;;;31.00;;
15958;SDS011;8078;47.822;9.402;2023-05-10T02:41:24;494.10;;;26.67;;
15958;SDS011;8078;47.822;9.402;2023-05-10T02:43:51;575.47;;;28.47;;
15958;SDS011;8078;47.822;9.402;2023-05-10T02:46:21;486.10;;;27.67;;
15958;SDS011;8078;47.822;9.402;2023-05-10T02:48:46;306.37;;;18.83;;
15958;SDS011;8078;47.822;9.402;2023-05-10T02:51:12;327.10;;;18.87;;
15958;SDS011;8078;47.822;9.402;2023-05-10T02:53:42;717.90;;;39.83;;
15958;SDS011;8078;47.822;9.402;2023-05-10T02:56:15;410.33;;;21.13;;
15958;SDS011;8078;47.822;9.402;2023-05-10T02:58:50;569.83;;;27.03;;
15958;SDS011;8078;47.822;9.402;2023-05-10T03:01:16;445.83;;;24.87;;
15958;SDS011;8078;47.822;9.402;2023-05-10T03:03:42;518.97;;;29.10;;
15958;SDS011;8078;47.822;9.402;2023-05-10T03:06:07;76.47;;;8.63;;
15958;SDS011;8078;47.822;9.402;2023-05-10T03:08:33;478.23;;;27.90;;
15958;SDS011;8078;47.822;9.402;2023-05-10T03:16:29;578.80;;;31.03;;
15958;SDS011;8078;47.822;9.402;2023-05-10T03:19:09;451.33;;;24.33;;
15958;SDS011;8078;47.822;9.402;2023-05-10T03:21:38;11.13;;;5.53;;
15958;SDS011;8078;47.822;9.402;2023-05-10T03:24:08;225.60;;;17.77;;
15958;SDS011;8078;47.822;9.402;2023-05-10T03:26:37;359.60;;;22.00;;
15958;SDS011;8078;47.822;9.402;2023-05-10T03:29:05;390.80;;;25.67;;
15958;SDS011;8078;47.822;9.402;2023-05-10T03:31:32;638.30;;;37.97;;
15958;SDS011;8078;47.822;9.402;2023-05-10T03:33:58;699.93;;;42.27;;
15958;SDS011;8078;47.822;9.402;2023-05-10T03:36:23;591.97;;;37.70;;
15958;SDS011;8078;47.822;9.402;2023-05-10T03:38:51;451.83;;;25.77;;
15958;SDS011;8078;47.822;9.402;2023-05-10T03:41:17;544.27;;;33.17;;
15958;SDS011;8078;47.822;9.402;2023-05-10T03:43:42;745.87;;;42.40;;
15958;SDS011;8078;47.822;9.402;2023-05-10T03:46:08;655.93;;;36.40;;
15958;SDS011;8078;47.822;9.402;2023-05-10T03:48:33;506.57;;;34.33;;
15958;SDS011;8078;47.822;9.402;2023-05-10T03:50:59;621.17;;;39.40;;
15958;SDS011;8078;47.822;9.402;2023-05-10T03:53:25;581.50;;;36.00;;
15958;SDS011;8078;47.822;9.402;2023-05-10T03:55:51;143.53;;;14.13;;
15958;SDS011;8078;47.822;9.402;2023-05-10T03:58:17;541.47;;;33.20;;
15958;SDS011;8078;47.822;9.402;2023-05-10T04:00:43;531.17;;;35.40;;
15958;SDS011;8078;47.822;9.402;2023-05-10T04:03:10;673.97;;;47.67;;
15958;SDS011;8078;47.822;9.402;2023-05-10T04:05:36;395.53;;;27.57;;
15958;SDS011;8078;47.822;9.402;2023-05-10T04:08:02;594.20;;;37.07;;
15958;SDS011;8078;47.822;9.402;2023-05-10T04:10:28;449.10;;;28.40;;
15958;SDS011;8078;47.822;9.402;2023-05-10T04:12:54;465.57;;;34.40;;
15958;SDS011;8078;47.822;9.402;2023-05-10T04:15:20;424.60;;;28.07;;
15958;SDS011;8078;47.822;9.402;2023-05-10T04:17:45;384.50;;;27.30;;
15958;SDS011;8078;47.822;9.402;2023-05-10T04:20:11;603.67;;;41.37;;
15958;SDS011;8078;47.822;9.402;2023-05-10T04:22:37;691.23;;;48.60;;
15958;SDS011;8078;47.822;9.402;2023-05-10T04:25:03;92.20;;;13.00;;
15958;SDS011;8078;47.822;9.402;2023-05-10T04:27:29;257.70;;;20.63;;
15958;SDS011;8078;47.822;9.402;2023-05-10T04:29:55;217.43;;;17.00;;
15958;SDS011;8078;47.822;9.402;2023-05-10T04:32:21;11.93;;;8.57;;
15958;SDS011;8078;47.822;9.402;2023-05-10T04:34:47;62.70;;;11.07;;
15958;SDS011;8078;47.822;9.402;2023-05-10T04:37:12;394.83;;;29.87;;
15958;SDS011;8078;47.822;9.402;2023-05-10T04:39:38;220.40;;;18.63;;
15958;SDS011;8078;47.822;9.402;2023-05-10T04:42:04;13.93;;;9.13;;
15958;SDS011;8078;47.822;9.402;2023-05-10T04:44:30;16.47;;;7.60;;
15958;SDS011;8078;47.822;9.402;2023-05-10T04:46:56;28.53;;;9.17;;
15958;SDS011;8078;47.822;9.402;2023-05-10T04:49:22;11.93;;;7.47;;
15958;SDS011;8078;47.822;9.402;2023-05-10T04:51:47;169.57;;;16.73;;
15958;SDS011;8078;47.822;9.402;2023-05-10T04:54:13;425.40;;;29.13;;
15958;SDS011;8078;47.822;9.402;2023-05-10T04:56:39;222.03;;;18.93;;
15958;SDS011;8078;47.822;9.402;2023-05-10T04:59:05;145.73;;;14.47;;
15958;SDS011;8078;47.822;9.402;2023-05-10T05:01:31;235.90;;;20.23;;
15958;SDS011;8078;47.822;9.402;2023-05-10T05:03:57;15.50;;;8.40;;
15958;SDS011;8078;47.822;9.402;2023-05-10T05:06:22;13.07;;;8.10;;
15958;SDS011;8078;47.822;9.402;2023-05-10T05:08:49;100.40;;;12.20;;
15958;SDS011;8078;47.822;9.402;2023-05-10T05:11:15;21.70;;;8.63;;
15958;SDS011;8078;47.822;9.402;2023-05-10T05:13:41;72.93;;;11.60;;
15958;SDS011;8078;47.822;9.402;2023-05-10T05:16:07;306.10;;;24.70;;
15958;SDS011;8078;47.822;9.402;2023-05-10T05:18:32;159.67;;;18.83;;
15958;SDS011;8078;47.822;9.402;2023-05-10T05:20:58;54.30;;;9.37;;
15958;SDS011;8078;47.822;9.402;2023-05-10T05:23:24;12.17;;;7.10;;
15958;SDS011;8078;47.822;9.402;2023-05-10T05:25:51;150.47;;;15.80;;
15958;SDS011;8078;47.822;9.402;2023-05-10T05:28:17;84.73;;;12.23;;
15958;SDS011;8078;47.822;9.402;2023-05-10T05:30:43;548.67;;;37.47;;
15958;SDS011;8078;47.822;9.402;2023-05-10T05:33:08;44.47;;;9.10;;
15958;SDS011;8078;47.822;9.402;2023-05-10T05:35:34;31.53;;;7.87;;
15958;SDS011;8078;47.822;9.402;2023-05-10T05:37:59;162.43;;;16.63;;
15958;SDS011;8078;47.822;9.402;2023-05-10T05:40:25;115.90;;;12.30;;
15958;SDS011;8078;47.822;9.402;2023-05-10T05:42:50;217.10;;;17.70;;
15958;SDS011;8078;47.822;9.402;2023-05-10T05:45:16;15.40;;;8.37;;
15958;SDS011;8078;47.822;9.402;2023-05-10T05:47:41;11.73;;;8.07;;
15958;SDS011;8078;47.822;9.402;2023-05-10T05:50:07;20.83;;;9.13;;
15958;SDS011;8078;47.822;9.402;2023-05-10T05:52:33;17.13;;;8.33;;
15958;SDS011;8078;47.822;9.402;2023-05-10T05:54:59;11.63;;;8.57;;
15958;SDS011;8078;47.822;9.402;2023-05-10T05:57:25;35.27;;;9.03;;
15958;SDS011;8078;47.822;9.402;2023-05-10T05:59:51;13.07;;;8.57;;
15958;SDS011;8078;47.822;9.402;2023-05-10T06:02:17;50.97;;;10.13;;
15958;SDS011;8078;47.822;9.402;2023-05-10T06:04:42;8.87;;;7.27;;
15958;SDS011;8078;47.822;9.402;2023-05-10T06:07:08;11.37;;;7.90;;
15958;SDS011;8078;47.822;9.402;2023-05-10T06:09:33;9.50;;;7.20;;
15958;SDS011;8078;47.822;9.402;2023-05-10T06:11:59;208.47;;;18.37;;
15958;SDS011;8078;47.822;9.402;2023-05-10T06:14:25;9.17;;;7.00;;
15958;SDS011;8078;47.822;9.402;2023-05-10T06:16:50;10.07;;;7.00;;
15958;SDS011;8078;47.822;9.402;2023-05-10T06:19:16;7.83;;;6.53;;
15958;SDS011;8078;47.822;9.402;2023-05-10T06:21:41;8.73;;;6.80;;
15958;SDS011;8078;47.822;9.402;2023-05-10T06:24:07;167.40;;;13.97;;
15958;SDS011;8078;47.822;9.402;2023-05-10T06:26:33;9.10;;;7.37;;
15958;SDS011;8078;47.822;9.402;2023-05-10T06:28:58;29.17;;;9.50;;
15958;SDS011;8078;47.822;9.402;2023-05-10T06:31:24;9.53;;;7.60;;
15958;SDS011;8078;47.822;9.402;2023-05-10T06:33:49;41.47;;;11.13;;
15958;SDS011;8078;47.822;9.402;2023-05-10T06:36:15;81.87;;;11.03;;
15958;SDS011;8078;47.822;9.402;2023-05-10T06:38:41;10.80;;;7.00;;
15958;SDS011;8078;47.822;9.402;2023-05-10T06:41:06;10.97;;;7.60;;
15958;SDS011;8078;47.822;9.402;2023-05-10T06:43:32;8.33;;;7.03;;
15958;SDS011;8078;47.822;9.402;2023-05-10T06:45:57;7.93;;;6.50;;
15958;SDS011;8078;47.822;9.402;2023-05-10T06:48:23;8.73;;;6.70;;
15958;SDS011;8078;47.822;9.402;2023-05-10T06:50:49;7.87;;;6.77;;
15958;SDS011;8078;47.822;9.402;2023-05-10T06:53:14;17.27;;;7.50;;
15958;SDS011;8078;47.822;9.402;2023-05-10T06:55:40;43.23;;;8.57;;
15958;SDS011;8078;47.822;9.402;2023-05-10T06:58:06;14.10;;;6.60;;
15958;SDS011;8078;47.822;9.402;2023-05-10T07:00:31;12.57;;;7.13;;
15958;SDS011;8078;47.822;9.402;2023-05-10T07:02:57;13.23;;;7.10;;
15958;SDS011;8078;47.822;9.402;2023-05-10T07:05:23;10.47;;;6.10;;
15958;SDS011;8078;47.822;9.402;2023-05-10T07:07:49;7.30;;;6.43;;
15958;SDS011;8078;47.822;9.402;2023-05-10T07:10:14;6.73;;;5.83;;
15958;SDS011;8078;47.822;9.402;2023-05-10T07:12:40;8.87;;;6.10;;
15958;SDS011;8078;47.822;9.402;2023-05-10T07:15:06;123.73;;;11.40;;
15958;SDS011;8078;47.822;9.402;2023-05-10T07:17:32;7.53;;;6.20;;
15958;SDS011;8078;47.822;9.402;2023-05-10T07:19:58;15.10;;;6.93;;
15958;SDS011;8078;47.822;9.402;2023-05-10T07:22:25;9.87;;;6.40;;
15958;SDS011;8078;47.822;9.402;2023-05-10T07:24:50;7.33;;;5.40;;
15958;SDS011;8078;47.822;9.402;2023-05-10T07:27:16;6.80;;;6.10;;
15958;SDS011;8078;47.822;9.402;2023-05-10T07:29:41;8.17;;;5.47;;
15958;SDS011;8078;47.822;9.402;2023-05-10T07:32:07;6.17;;;5.37;;
15958;SDS011;8078;47.822;9.402;2023-05-10T07:34:32;28.13;;;7.37;;
15958;SDS011;8078;47.822;9.402;2023-05-10T07:36:58;11.70;;;5.63;;
15958;SDS011;8078;47.822;9.402;2023-05-10T07:39:24;6.90;;;4.93;;
15958;SDS011;8078;47.822;9.402;2023-05-10T07:41:50;10.43;;;5.77;;
15958;SDS011;8078;47.822;9.402;2023-05-10T07:44:16;6.30;;;5.70;;
15958;SDS011;8078;47.822;9.402;2023-05-10T07:46:44;7.33;;;5.97;;
15958;SDS011;8078;47.822;9.402;2023-05-10T07:49:09;8.80;;;6.07;;
15958;SDS011;8078;47.822;9.402;2023-05-10T07:51:35;7.37;;;6.43;;
15958;SDS011;8078;47.822;9.402;2023-05-10T07:54:00;7.50;;;6.67;;
15958;SDS011;8078;47.822;9.402;2023-05-10T07:56:28;13.47;;;7.07;;
15958;SDS011;8078;47.822;9.402;2023-05-10T07:58:58;9.83;;;6.23;;
15958;SDS011;8078;47.822;9.402;2023-05-10T08:01:25;7.87;;;7.07;;
15958;SDS011;8078;47.822;9.402;2023-05-10T08:03:52;7.27;;;6.30;;
15958;SDS011;8078;47.822;9.402;2023-05-10T08:06:19;6.47;;;5.47;;
15958;SDS011;8078;47.822;9.402;2023-05-10T08:08:46;5.53;;;5.03;;
15958;SDS011;8078;47.822;9.402;2023-05-10T08:11:15;5.90;;;5.40;;
15958;SDS011;8078;47.822;9.402;2023-05-10T08:13:44;6.17;;;5.07;;
15958;SDS011;8078;47.822;9.402;2023-05-10T08:16:10;5.80;;;5.20;;
15958;SDS011;8078;47.822;9.402;2023-05-10T08:18:36;5.73;;;5.07;;
15958;SDS011;8078;47.822;9.402;2023-05-10T08:21:02;6.43;;;4.23;;
15958;SDS011;8078;47.822;9.402;2023-05-10T08:23:27;4.53;;;4.13;;
15958;SDS011;8078;47.822;9.402;2023-05-10T08:25:53;4.27;;;3.97;;
15958;SDS011;8078;47.822;9.402;2023-05-10T08:28:18;5.33;;;4.83;;
15958;SDS011;8078;47.822;9.402;2023-05-10T08:30:44;4.37;;;3.97;;
15958;SDS011;8078;47.822;9.402;2023-05-10T08:33:09;3.97;;;3.67;;
15958;SDS011;8078;47.822;9.402;2023-05-10T08:35:35;6.50;;;3.97;;
15958;SDS011;8078;47.822;9.402;2023-05-10T08:38:01;4.40;;;4.00;;
15958;SDS011;8078;47.822;9.402;2023-05-10T08:40:26;4.20;;;3.80;;
15958;SDS011;8078;47.822;9.402;2023-05-10T08:42:56;5.00;;;3.13;;
15958;SDS011;8078;47.822;9.402;2023-05-10T08:45:30;4.20;;;3.80;;
15958;SDS011;8078;47.822;9.402;2023-05-10T08:47:59;3.77;;;3.47;;
15958;SDS011;8078;47.822;9.402;2023-05-10T08:50:26;4.30;;;3.90;;
15958;SDS011;8078;47.822;9.402;2023-05-10T08:52:52;4.30;;;4.00;;
15958;SDS011;8078;47.822;9.402;2023-05-10T08:55:23;3.67;;;2.97;;
15958;SDS011;8078;47.822;9.402;2023-05-10T08:57:49;2.60;;;2.40;;
15958;SDS011;8078;47.822;9.402;2023-05-10T09:00:15;2.50;;;2.30;;
15958;SDS011;8078;47.822;9.402;2023-05-10T09:02:41;3.50;;;1.80;;
15958;SDS011;8078;47.822;9.402;2023-05-10T09:05:09;1.97;;;1.80;;
15958;SDS011;8078;47.822;9.402;2023-05-10T09:07:35;2.20;;;1.60;;
15958;SDS011;8078;47.822;9.402;2023-05-10T09:10:01;1.60;;;1.50;;
15958;SDS011;8078;47.822;9.402;2023-05-10T09:12:27;2.97;;;1.70;;
15958;SDS011;8078;47.822;9.402;2023-05-10T09:14:53;1.60;;;1.50;;
15958;SDS011;8078;47.822;9.402;2023-05-10T09:17:21;3.67;;;1.53;;
15958;SDS011;8078;47.822;9.402;2023-05-10T09:19:48;1.63;;;1.53;;
15958;SDS011;8078;47.822;9.402;2023-05-10T09:22:13;2.10;;;1.97;;
15958;SDS011;8078;47.822;9.402;2023-05-10T09:24:39;4.77;;;2.07;;
15958;SDS011;8078;47.822;9.402;2023-05-10T09:27:10;4.90;;;2.00;;
15958;SDS011;8078;47.822;9.402;2023-05-10T09:29:39;2.27;;;2.00;;
15958;SDS011;8078;47.822;9.402;2023-05-10T09:32:05;3.00;;;2.00;;
15958;SDS011;8078;47.822;9.402;2023-05-10T09:34:32;3.57;;;2.57;;
15958;SDS011;8078;47.822;9.402;2023-05-10T09:37:00;3.00;;;2.40;;
15958;SDS011;8078;47.822;9.402;2023-05-10T09:39:34;3.20;;;2.80;;
15958;SDS011;8078;47.822;9.402;2023-05-10T09:42:04;3.77;;;2.47;;
15958;SDS011;8078;47.822;9.402;2023-05-10T09:44:33;3.63;;;2.37;;
15958;SDS011;8078;47.822;9.402;2023-05-10T09:47:00;4.37;;;2.43;;
15958;SDS011;8078;47.822;9.402;2023-05-10T09:49:26;5.33;;;2.30;;
15958;SDS011;8078;47.822;9.402;2023-05-10T09:52:05;5.20;;;2.50;;
15958;SDS011;8078;47.822;9.402;2023-05-10T09:54:32;2.23;;;2.10;;
15958;SDS011;8078;47.822;9.402;2023-05-10T09:56:58;3.33;;;2.50;;
15958;SDS011;8078;47.822;9.402;2023-05-10T09:59:25;3.97;;;2.60;;
15958;SDS011;8078;47.822;9.402;2023-05-10T10:01:52;5.07;;;2.80;;
15958;SDS011;8078;47.822;9.402;2023-05-10T10:04:21;4.60;;;2.70;;
15958;SDS011;8078;47.822;9.402;2023-05-10T10:06:46;3.50;;;2.97;;
15958;SDS011;8078;47.822;9.402;2023-05-10T10:09:22;3.50;;;2.70;;
15958;SDS011;8078;47.822;9.402;2023-05-10T10:11:49;4.60;;;2.90;;
15958;SDS011;8078;47.822;9.402;2023-05-10T10:14:15;3.10;;;2.83;;
15958;SDS011;8078;47.822;9.402;2023-05-10T10:16:43;3.20;;;2.90;;
15958;SDS011;8078;47.822;9.402;2023-05-10T10:19:09;3.80;;;3.13;;
15958;SDS011;8078;47.822;9.402;2023-05-10T10:21:35;3.90;;;3.30;;
15958;SDS011;8078;47.822;9.402;2023-05-10T10:24:01;4.77;;;2.90;;
15958;SDS011;8078;47.822;9.402;2023-05-10T10:26:26;4.50;;;2.90;;
15958;SDS011;8078;47.822;9.402;2023-05-10T10:29:10;5.07;;;3.13;;
15958;SDS011;8078;47.822;9.402;2023-05-10T10:31:39;3.67;;;2.93;;
15958;SDS011;8078;47.822;9.402;2023-05-10T10:34:10;3.10;;;2.70;;
15958;SDS011;8078;47.822;9.402;2023-05-10T10:36:50;3.60;;;3.13;;
15958;SDS011;8078;47.822;9.402;2023-05-10T10:39:15;4.60;;;2.70;;
15958;SDS011;8078;47.822;9.402;2023-05-10T10:41:54;4.20;;;3.00;;
15958;SDS011;8078;47.822;9.402;2023-05-10T10:47:01;2.73;;;2.10;;
15958;SDS011;8078;47.822;9.402;2023-05-10T10:49:27;1.08;;;0.98;;
15958;SDS011;8078;47.822;9.402;2023-05-10T10:57:27;1.53;;;0.70;;
15958;SDS011;8078;47.822;9.402;2023-05-10T11:05:44;0.73;;;0.60;;
15958;SDS011;8078;47.822;9.402;2023-05-10T11:08:17;0.80;;;0.70;;
15958;SDS011;8078;47.822;9.402;2023-05-10T11:13:29;0.90;;;0.90;;
15958;SDS011;8078;47.822;9.402;2023-05-10T11:15:59;0.67;;;0.67;;
15958;SDS011;8078;47.822;9.402;2023-05-10T11:18:36;1.03;;;0.80;;
15958;SDS011;8078;47.822;9.402;2023-05-10T11:21:02;0.73;;;0.55;;
15958;SDS011;8078;47.822;9.402;2023-05-10T11:23:47;0.95;;;0.70;;
15958;SDS011;8078;47.822;9.402;2023-05-10T11:26:15;1.85;;;0.70;;
15958;SDS011;8078;47.822;9.402;2023-05-10T11:28:44;1.30;;;0.80;;
15958;SDS011;8078;47.822;9.402;2023-05-10T11:31:14;0.90;;;0.90;;
15958;SDS011;8078;47.822;9.402;2023-05-10T11:33:43;0.95;;;0.80;;
15958;SDS011;8078;47.822;9.402;2023-05-10T11:38:46;0.90;;;0.90;;
15958;SDS011;8078;47.822;9.402;2023-05-10T11:41:13;1.25;;;0.98;;
15958;SDS011;8078;47.822;9.402;2023-05-10T11:43:40;0.90;;;0.90;;
15958;SDS011;8078;47.822;9.402;2023-05-10T11:46:07;1.00;;;1.00;;
15958;SDS011;8078;47.822;9.402;2023-05-10T11:48:35;0.98;;;0.93;;
15958;SDS011;8078;47.822;9.402;2023-05-10T11:51:01;1.10;;;1.02;;
15958;SDS011;8078;47.822;9.402;2023-05-10T11:53:28;2.70;;;1.10;;
15958;SDS011;8078;47.822;9.402;2023-05-10T11:56:02;4.97;;;1.60;;
15958;SDS011;8078;47.822;9.402;2023-05-10T11:58:31;3.92;;;1.90;;
15958;SDS011;8078;47.822;9.402;2023-05-10T12:00:58;4.28;;;1.60;;
15958;SDS011;8078;47.822;9.402;2023-05-10T12:03:24;2.95;;;1.75;;
15958;SDS011;8078;47.822;9.402;2023-05-10T12:05:50;3.47;;;1.70;;
15958;SDS011;8078;47.822;9.402;2023-05-10T12:08:19;3.23;;;1.70;;
15958;SDS011;8078;47.822;9.402;2023-05-10T12:10:47;2.37;;;1.80;;
15958;SDS011;8078;47.822;9.402;2023-05-10T12:13:13;2.25;;;1.70;;
15958;SDS011;8078;47.822;9.402;2023-05-10T12:15:40;2.77;;;2.30;;
15958;SDS011;8078;47.822;9.402;2023-05-10T12:18:08;2.47;;;2.00;;
15958;SDS011;8078;47.822;9.402;2023-05-10T12:20:35;4.70;;;2.60;;
15958;SDS011;8078;47.822;9.402;2023-05-10T12:23:01;2.43;;;1.87;;
15958;SDS011;8078;47.822;9.402;2023-05-10T12:25:32;2.77;;;2.10;;
15958;SDS011;8078;47.822;9.402;2023-05-10T12:28:00;2.17;;;1.90;;
15958;SDS011;8078;47.822;9.402;2023-05-10T12:30:29;3.27;;;2.10;;
15958;SDS011;8078;47.822;9.402;2023-05-10T12:32:59;3.00;;;2.00;;
15958;SDS011;8078;47.822;9.402;2023-05-10T12:35:33;3.77;;;2.10;;
15958;SDS011;8078;47.822;9.402;2023-05-10T12:38:28;1.90;;;1.70;;
15958;SDS011;8078;47.822;9.402;2023-05-10T12:41:01;4.95;;;2.20;;
15958;SDS011;8078;47.822;9.402;2023-05-10T12:43:28;2.15;;;1.90;;
15958;SDS011;8078;47.822;9.402;2023-05-10T12:45:54;5.47;;;2.20;;
15958;SDS011;8078;47.822;9.402;2023-05-10T12:48:20;3.45;;;1.70;;
15958;SDS011;8078;47.822;9.402;2023-05-10T12:50:46;3.60;;;1.90;;
15958;SDS011;8078;47.822;9.402;2023-05-10T12:53:13;4.03;;;1.90;;
15958;SDS011;8078;47.822;9.402;2023-05-10T12:55:40;4.43;;;1.90;;
15958;SDS011;8078;47.822;9.402;2023-05-10T12:58:06;4.22;;;1.77;;
15958;SDS011;8078;47.822;9.402;2023-05-10T13:00:32;2.58;;;2.10;;
15958;SDS011;8078;47.822;9.402;2023-05-10T13:02:57;2.13;;;1.75;;
15958;SDS011;8078;47.822;9.402;2023-05-10T13:05:23;3.38;;;2.25;;
15958;SDS011;8078;47.822;9.402;2023-05-10T13:07:48;1.63;;;1.53;;
15958;SDS011;8078;47.822;9.402;2023-05-10T13:10:14;3.87;;;1.83;;
15958;SDS011;8078;47.822;9.402;2023-05-10T13:12:40;2.75;;;1.50;;
15958;SDS011;8078;47.822;9.402;2023-05-10T13:15:05;3.10;;;1.90;;
15958;SDS011;8078;47.822;9.402;2023-05-10T13:17:31;1.83;;;1.53;;
15958;SDS011;8078;47.822;9.402;2023-05-10T13:19:57;6.70;;;1.73;;
15958;SDS011;8078;47.822;9.402;2023-05-10T13:22:22;1.50;;;1.40;;
15958;SDS011;8078;47.822;9.402;2023-05-10T13:24:48;2.97;;;1.70;;
15958;SDS011;8078;47.822;9.402;2023-05-10T13:27:13;2.60;;;1.50;;
15958;SDS011;8078;47.822;9.402;2023-05-10T13:29:39;2.55;;;1.50;;
15958;SDS011;8078;47.822;9.402;2023-05-10T13:32:05;2.10;;;1.40;;
15958;SDS011;8078;47.822;9.402;2023-05-10T13:34:30;2.70;;;1.55;;
15958;SDS011;8078;47.822;9.402;2023-05-10T13:36:56;3.35;;;1.67;;
15958;SDS011;8078;47.822;9.402;2023-05-10T13:39:22;3.10;;;1.25;;
15958;SDS011;8078;47.822;9.402;2023-05-10T13:41:48;3.40;;;1.35;;
15958;SDS011;8078;47.822;9.402;2023-05-10T13:44:13;1.77;;;1.20;;
15958;SDS011;8078;47.822;9.402;2023-05-10T13:46:40;2.60;;;1.70;;
15958;SDS011;8078;47.822;9.402;2023-05-10T13:49:08;3.60;;;1.33;;
15958;SDS011;8078;47.822;9.402;2023-05-10T13:51:34;5.80;;;1.67;;
15958;SDS011;8078;47.822;9.402;2023-05-10T13:54:00;2.25;;;1.20;;
15958;SDS011;8078;47.822;9.402;2023-05-10T13:56:29;3.08;;;1.40;;
15958;SDS011;8078;47.822;9.402;2023-05-10T13:58:56;2.75;;;1.10;;
15958;SDS011;8078;47.822;9.402;2023-05-10T14:01:23;1.30;;;1.20;;
15958;SDS011;8078;47.822;9.402;2023-05-10T14:03:48;1.45;;;1.10;;
15958;SDS011;8078;47.822;9.402;2023-05-10T14:06:14;1.90;;;1.20;;
15958;SDS011;8078;47.822;9.402;2023-05-10T14:08:40;2.63;;;1.52;;
15958;SDS011;8078;47.822;9.402;2023-05-10T14:11:05;1.55;;;1.27;;
15958;SDS011;8078;47.822;9.402;2023-05-10T14:13:31;1.63;;;1.25;;
15958;SDS011;8078;47.822;9.402;2023-05-10T14:15:57;2.50;;;1.50;;
15958;SDS011;8078;47.822;9.402;2023-05-10T14:18:23;2.38;;;1.30;;
15958;SDS011;8078;47.822;9.402;2023-05-10T14:20:49;2.78;;;1.30;;
15958;SDS011;8078;47.822;9.402;2023-05-10T14:23:15;3.38;;;1.33;;
15958;SDS011;8078;47.822;9.402;2023-05-10T14:25:40;2.33;;;1.20;;
15958;SDS011;8078;47.822;9.402;2023-05-10T14:28:06;2.42;;;1.30;;
15958;SDS011;8078;47.822;9.402;2023-05-10T14:30:31;3.75;;;1.67;;
15958;SDS011;8078;47.822;9.402;2023-05-10T14:32:59;1.88;;;1.33;;
15958;SDS011;8078;47.822;9.402;2023-05-10T14:35:26;1.88;;;1.35;;
15958;SDS011;8078;47.822;9.402;2023-05-10T14:37:52;3.25;;;1.40;;
15958;SDS011;8078;47.822;9.402;2023-05-10T14:40:17;2.92;;;1.67;;
15958;SDS011;8078;47.822;9.402;2023-05-10T14:42:43;3.15;;;1.30;;
15958;SDS011;8078;47.822;9.402;2023-05-10T14:45:09;4.90;;;1.30;;
15958;SDS011;8078;47.822;9.402;2023-05-10T14:47:35;2.60;;;1.30;;
15958;SDS011;8078;47.822;9.402;2023-05-10T14:50:01;4.72;;;1.30;;
15958;SDS011;8078;47.822;9.402;2023-05-10T14:52:27;1.65;;;1.42;;
15958;SDS011;8078;47.822;9.402;2023-05-10T14:54:52;1.52;;;1.30;;
15958;SDS011;8078;47.822;9.402;2023-05-10T14:57:18;4.50;;;1.50;;
15958;SDS011;8078;47.822;9.402;2023-05-10T14:59:44;1.98;;;1.65;;
15958;SDS011;8078;47.822;9.402;2023-05-10T15:02:10;2.58;;;1.40;;
15958;SDS011;8078;47.822;9.402;2023-05-10T15:04:36;4.03;;;1.83;;
15958;SDS011;8078;47.822;9.402;2023-05-10T15:07:02;2.65;;;1.40;;
15958;SDS011;8078;47.822;9.402;2023-05-10T15:09:28;1.58;;;1.40;;
15958;SDS011;8078;47.822;9.402;2023-05-10T15:11:53;3.05;;;1.60;;
15958;SDS011;8078;47.822;9.402;2023-05-10T15:14:19;4.05;;;1.45;;
15958;SDS011;8078;47.822;9.402;2023-05-10T15:16:45;1.98;;;1.33;;